Time;durP1;ratioP1;P1;durP2;ratioP2;P2;SDS_P1;SDS_P2;PMS_P1;PMS_P2;Temp;Humidity;BMP_temperature;BMP_pressure;BME280_temperature;BME280_humidity;BME280_pressure;Samples;Min_cycle;Max_cycle;Signal;HPM_P1;HPM_P2
2021/10/30 00:00:08;;;;;;;6.57;2.50;;;25.90;95.60;;;;;;5040785;28;20085;-51
2021/10/30 00:02:34;;;;;;;9.43;2.25;;;25.90;95.60;;;;;;5109571;28;20041;-53
2021/10/30 00:05:01;;;;;;;4.22;2.00;;;25.90;95.60;;;;;;5040726;28;20079;-54
2021/10/30 00:07:28;;;;;;;4.38;1.88;;;25.90;95.60;;;;;;5041069;28;20062;-54
2021/10/30 00:09:55;;;;;;;6.20;2.05;;;25.90;95.60;;;;;;5041091;28;20262;-55
2021/10/30 00:12:22;;;;;;;5.78;1.50;;;25.90;95.60;;;;;;5108850;28;20056;-54
2021/10/30 00:14:48;;;;;;;5.03;1.42;;;25.90;95.60;;;;;;5040655;28;20031;-59
2021/10/30 00:17:15;;;;;;;5.07;1.30;;;25.90;95.80;;;;;;5040744;28;20324;-55
2021/10/30 00:19:42;;;;;;;3.63;1.35;;;25.90;95.60;;;;;;5040179;28;20089;-54
2021/10/30 00:22:09;;;;;;;10.40;2.22;;;25.90;95.60;;;;;;5040885;28;20022;-51
2021/10/30 00:24:36;;;;;;;8.30;2.00;;;25.90;95.60;;;;;;5040202;28;20191;-50
2021/10/30 00:27:06;;;;;;;7.65;1.98;;;25.90;95.60;;;;;;5041716;28;20026;-51
2021/10/30 00:29:33;;;;;;;9.75;1.92;;;25.90;95.60;;;;;;5043944;28;20048;-53
2021/10/30 00:31:59;;;;;;;6.55;2.25;;;25.90;95.60;;;;;;5044145;28;20091;-51
2021/10/30 00:34:26;;;;;;;5.50;2.20;;;25.90;95.60;;;;;;5043524;28;20028;-52
2021/10/30 00:36:53;;;;;;;6.43;1.70;;;25.90;95.60;;;;;;5043717;28;20013;-52
2021/10/30 00:39:19;;;;;;;2.92;1.50;;;25.90;95.60;;;;;;5043734;28;20025;-53
2021/10/30 00:41:50;;;;;;;5.40;1.85;;;25.90;95.60;;;;;;5043806;28;20020;-55
2021/10/30 00:44:21;;;;;;;4.25;1.65;;;25.90;95.60;;;;;;5043651;28;20361;-55
2021/10/30 00:46:51;;;;;;;5.65;1.40;;;25.80;95.60;;;;;;5043696;28;20036;-55
2021/10/30 00:49:20;;;;;;;8.88;1.65;;;25.80;95.60;;;;;;5043729;28;20025;-55
2021/10/30 00:51:53;;;;;;;3.97;1.48;;;25.80;95.60;;;;;;5043878;28;20037;-55
2021/10/30 00:54:23;;;;;;;6.03;1.30;;;25.80;95.60;;;;;;5043356;28;20025;-55
2021/10/30 00:56:52;;;;;;;4.05;1.10;;;25.80;95.60;;;;;;5112429;28;20025;-54
2021/10/30 00:59:20;;;;;;;2.97;1.00;;;25.80;95.60;;;;;;5043418;28;20049;-55
2021/10/30 01:01:49;;;;;;;9.13;1.10;;;25.80;95.60;;;;;;5112296;28;20030;-56
2021/10/30 01:04:18;;;;;;;7.07;1.10;;;25.80;95.60;;;;;;5043373;28;20222;-55
2021/10/30 01:06:49;;;;;;;5.82;1.00;;;25.80;95.60;;;;;;5043598;28;20025;-53
2021/10/30 01:09:19;;;;;;;5.22;0.95;;;25.80;95.60;;;;;;5043404;28;20173;-49
2021/10/30 01:11:46;;;;;;;9.32;0.90;;;25.80;95.60;;;;;;5043018;28;20025;-51
2021/10/30 01:14:14;;;;;;;5.75;1.02;;;25.80;95.60;;;;;;5042967;28;20119;-53
2021/10/30 01:16:40;;;;;;;5.20;1.13;;;25.80;95.60;;;;;;5112069;28;20317;-52
2021/10/30 01:19:07;;;;;;;4.30;0.90;;;25.80;95.60;;;;;;5043378;28;20025;-55
2021/10/30 01:21:36;;;;;;;5.07;0.93;;;25.80;95.70;;;;;;5111818;28;20029;-57
2021/10/30 01:24:06;;;;;;;5.20;1.10;;;25.80;95.70;;;;;;5043133;28;20247;-57
2021/10/30 01:26:33;;;;;;;4.70;0.82;;;25.80;95.70;;;;;;5094967;28;20055;-54
2021/10/30 01:29:02;;;;;;;4.93;1.00;;;25.80;95.80;;;;;;5042779;28;20062;-57
2021/10/30 01:31:29;;;;;;;7.03;1.10;;;25.80;95.70;;;;;;5111188;28;20033;-55
2021/10/30 01:33:56;;;;;;;4.88;1.58;;;25.80;95.80;;;;;;5042815;28;20029;-53
2021/10/30 01:36:23;;;;;;;3.00;0.80;;;25.80;95.80;;;;;;5042894;28;20025;-57
2021/10/30 01:38:50;;;;;;;4.47;0.82;;;25.80;95.80;;;;;;5110770;28;20049;-53
2021/10/30 01:41:21;;;;;;;5.93;1.00;;;25.80;95.80;;;;;;5043003;28;20026;-56
2021/10/30 01:43:49;;;;;;;3.20;1.15;;;25.80;95.80;;;;;;5042649;28;20344;-57
2021/10/30 01:46:17;;;;;;;3.00;0.85;;;25.80;95.80;;;;;;5043094;28;20057;-56
2021/10/30 01:48:44;;;;;;;10.82;1.60;;;25.80;95.80;;;;;;5111283;28;20045;-56
2021/10/30 01:51:11;;;;;;;7.25;1.55;;;25.80;95.80;;;;;;5042687;28;20094;-56
2021/10/30 01:53:38;;;;;;;8.30;2.50;;;25.80;95.90;;;;;;5042547;28;20030;-54
2021/10/30 01:56:05;;;;;;;9.13;3.25;;;25.80;95.90;;;;;;5042847;28;20066;-54
2021/10/30 01:58:32;;;;;;;10.52;3.72;;;25.80;95.90;;;;;;5043050;28;20017;-56
2021/10/30 02:01:00;;;;;;;10.52;4.53;;;25.80;95.90;;;;;;5042572;28;20109;-53
2021/10/30 02:03:29;;;;;;;8.77;5.05;;;25.80;95.90;;;;;;5042371;28;20048;-55
2021/10/30 02:05:57;;;;;;;11.80;5.43;;;25.80;95.90;;;;;;5042495;28;20025;-54
2021/10/30 02:08:24;;;;;;;10.05;5.82;;;25.80;96.20;;;;;;5042594;28;20302;-51
2021/10/30 02:10:52;;;;;;;16.27;7.80;;;25.80;95.90;;;;;;5111091;28;20027;-57
2021/10/30 02:13:20;;;;;;;17.30;10.27;;;25.80;95.90;;;;;;5042138;28;20018;-54
2021/10/30 02:15:46;;;;;;;21.77;13.00;;;25.80;95.90;;;;;;5042788;28;20073;-54
2021/10/30 02:18:14;;;;;;;19.80;12.93;;;25.80;96.00;;;;;;5042330;28;20093;-54
2021/10/30 02:20:41;;;;;;;22.52;14.23;;;25.80;96.00;;;;;;5110417;28;20037;-54
2021/10/30 02:23:08;;;;;;;20.33;13.63;;;25.80;96.00;;;;;;5042503;28;20081;-56
2021/10/30 02:25:35;;;;;;;22.50;13.60;;;25.80;95.90;;;;;;5042144;28;20306;-52
2021/10/30 02:28:02;;;;;;;21.67;11.95;;;25.80;95.90;;;;;;5042021;28;20048;-54
2021/10/30 02:30:29;;;;;;;18.58;10.10;;;25.80;96.00;;;;;;5041881;28;20017;-55
2021/10/30 02:32:56;;;;;;;15.18;7.30;;;25.80;96.00;;;;;;5035453;28;20025;-57
2021/10/30 02:35:23;;;;;;;14.55;5.05;;;25.80;96.10;;;;;;5102782;28;20275;-52
2021/10/30 02:37:50;;;;;;;11.27;5.05;;;25.70;96.20;;;;;;5090161;28;20071;-54
2021/10/30 02:40:17;;;;;;;16.90;6.68;;;25.70;96.40;;;;;;5022394;28;20022;-55
2021/10/30 02:42:43;;;;;;;7.88;4.97;;;25.70;96.30;;;;;;5022036;28;20033;-55
2021/10/30 02:45:10;;;;;;;10.18;4.40;;;25.70;96.30;;;;;;5021152;28;20017;-55
2021/10/30 02:47:37;;;;;;;10.25;3.45;;;25.70;96.30;;;;;;5022101;28;20030;-60
2021/10/30 02:50:05;;;;;;;11.60;3.22;;;25.70;96.20;;;;;;5020784;28;20022;-55
2021/10/30 02:52:31;;;;;;;7.32;3.08;;;25.70;96.20;;;;;;5021938;28;20026;-55
2021/10/30 02:54:58;;;;;;;12.20;3.60;;;25.70;96.20;;;;;;5020500;28;20025;-59
2021/10/30 02:57:25;;;;;;;8.32;2.65;;;25.70;96.20;;;;;;5087449;28;20108;-56
2021/10/30 02:59:53;;;;;;;11.18;2.60;;;25.70;96.10;;;;;;5020170;28;20306;-59
2021/10/30 03:02:20;;;;;;;9.23;2.40;;;25.70;96.10;;;;;;5021341;28;20025;-56
2021/10/30 03:04:47;;;;;;;6.70;2.70;;;25.80;96.10;;;;;;5021779;28;20021;-59
2021/10/30 03:07:14;;;;;;;12.23;2.90;;;25.70;96.10;;;;;;5021899;28;20053;-62
2021/10/30 03:09:41;;;;;;;9.15;2.53;;;25.70;96.10;;;;;;5022275;28;20026;-54
2021/10/30 03:12:07;;;;;;;7.18;1.83;;;25.70;96.10;;;;;;5022012;28;20032;-57
2021/10/30 03:14:34;;;;;;;7.85;1.77;;;25.70;96.00;;;;;;5021809;28;20029;-55
2021/10/30 03:17:01;;;;;;;5.47;1.50;;;25.80;96.00;;;;;;5022229;28;20034;-59
2021/10/30 03:19:28;;;;;;;4.97;1.20;;;25.70;96.00;;;;;;5021874;28;20306;-61
2021/10/30 03:21:54;;;;;;;6.18;1.50;;;25.70;96.00;;;;;;5090369;28;20042;-59
2021/10/30 03:24:21;;;;;;;16.40;1.60;;;25.70;95.90;;;;;;5022583;28;20029;-60
2021/10/30 03:26:48;;;;;;;7.90;1.75;;;25.70;96.10;;;;;;5021924;28;20025;-59
2021/10/30 03:29:14;;;;;;;7.97;2.78;;;25.70;95.90;;;;;;5089507;28;20025;-57
2021/10/30 03:31:41;;;;;;;9.90;3.13;;;25.70;95.90;;;;;;5021541;28;20029;-59
2021/10/30 03:34:08;;;;;;;9.35;2.53;;;25.70;95.90;;;;;;5021310;28;20030;-56
2021/10/30 03:36:34;;;;;;;10.55;2.42;;;25.70;95.90;;;;;;5089065;28;20030;-55
2021/10/30 03:39:01;;;;;;;10.80;1.83;;;25.70;95.80;;;;;;5072435;28;20218;-56
2021/10/30 03:41:28;;;;;;;9.68;1.85;;;25.70;95.80;;;;;;5021433;28;20330;-55
2021/10/30 03:43:54;;;;;;;7.20;1.77;;;25.70;95.70;;;;;;5021092;28;20065;-54
2021/10/30 03:46:21;;;;;;;7.65;1.30;;;25.70;95.70;;;;;;5089081;28;20033;-58
2021/10/30 03:48:48;;;;;;;7.75;1.30;;;25.70;95.80;;;;;;5021173;28;20033;-57
2021/10/30 03:51:14;;;;;;;4.97;1.02;;;25.70;95.70;;;;;;5020850;28;20034;-54
2021/10/30 03:53:41;;;;;;;6.78;1.25;;;25.70;95.70;;;;;;5021003;28;20022;-53
2021/10/30 03:56:08;;;;;;;5.88;0.90;;;25.70;95.70;;;;;;5021017;28;20036;-55
2021/10/30 03:58:35;;;;;;;9.13;1.10;;;25.70;95.60;;;;;;5088670;28;20042;-54
2021/10/30 04:01:01;;;;;;;8.30;0.90;;;25.70;95.60;;;;;;5021456;28;20053;-54
2021/10/30 04:03:28;;;;;;;11.00;1.10;;;25.70;95.60;;;;;;5092308;28;20314;-54
2021/10/30 04:05:55;;;;;;;7.60;0.90;;;25.70;95.50;;;;;;5024373;28;20038;-53
2021/10/30 04:08:21;;;;;;;4.30;0.68;;;25.70;95.60;;;;;;5024335;28;20092;-58
2021/10/30 04:10:48;;;;;;;6.03;0.68;;;25.70;95.50;;;;;;5024488;28;20210;-55
2021/10/30 04:13:15;;;;;;;1.65;0.50;;;25.70;95.50;;;;;;5024027;28;20028;-51
2021/10/30 04:15:42;;;;;;;8.05;0.80;;;25.70;95.40;;;;;;5024436;28;20025;-55
2021/10/30 04:18:09;;;;;;;5.35;0.82;;;25.70;95.40;;;;;;5024289;28;20015;-56
2021/10/30 04:20:36;;;;;;;3.92;0.57;;;25.70;95.40;;;;;;5024097;28;20275;-60
2021/10/30 04:23:02;;;;;;;4.60;0.55;;;25.60;95.30;;;;;;5024533;28;20081;-59
2021/10/30 04:25:29;;;;;;;5.75;0.60;;;25.60;95.30;;;;;;5024406;28;20025;-59
2021/10/30 04:27:56;;;;;;;6.18;0.70;;;25.70;95.30;;;;;;5024203;28;20336;-54
2021/10/30 04:30:22;;;;;;;4.38;0.60;;;25.70;95.30;;;;;;5024092;28;20018;-54
2021/10/30 04:32:50;;;;;;;4.00;0.40;;;25.60;95.20;;;;;;5024051;28;20032;-54
2021/10/30 04:35:16;;;;;;;6.15;1.02;;;25.60;95.30;;;;;;5023859;28;20025;-54
2021/10/30 04:37:43;;;;;;;5.45;0.52;;;25.60;95.20;;;;;;5024520;28;20022;-51
2021/10/30 04:40:10;;;;;;;3.15;0.45;;;25.60;95.20;;;;;;5023966;28;20017;-56
2021/10/30 04:42:36;;;;;;;5.10;0.50;;;25.60;95.20;;;;;;5023975;28;20119;-58
2021/10/30 04:45:04;;;;;;;4.85;0.60;;;25.60;95.10;;;;;;5023903;28;20049;-56
2021/10/30 04:47:31;;;;;;;6.10;0.60;;;25.60;95.10;;;;;;5024381;28;20038;-57
2021/10/30 04:49:58;;;;;;;3.67;0.65;;;25.60;95.10;;;;;;5023824;28;20026;-57
2021/10/30 04:52:25;;;;;;;9.15;0.60;;;25.60;95.10;;;;;;5024063;28;20049;-55
2021/10/30 04:54:52;;;;;;;4.18;0.60;;;25.60;95.10;;;;;;5023696;28;20022;-56
2021/10/30 04:57:18;;;;;;;4.32;0.60;;;25.60;95.00;;;;;;5024135;28;20022;-56
2021/10/30 04:59:45;;;;;;;4.25;0.70;;;25.60;95.00;;;;;;5023721;28;20107;-57
2021/10/30 05:02:12;;;;;;;5.55;0.57;;;25.60;94.90;;;;;;5024183;28;20033;-60
2021/10/30 05:04:38;;;;;;;1.60;0.50;;;25.60;94.90;;;;;;5023618;28;20057;-58
2021/10/30 05:07:05;;;;;;;4.65;0.50;;;25.60;94.90;;;;;;5023776;28;20037;-60
2021/10/30 05:09:32;;;;;;;7.10;0.50;;;25.60;94.90;;;;;;5023591;28;20071;-61
2021/10/30 05:11:59;;;;;;;1.95;0.50;;;25.60;94.90;;;;;;5091919;28;20222;-61
2021/10/30 05:14:26;;;;;;;2.05;0.43;;;25.60;94.90;;;;;;5089915;28;20029;-60
2021/10/30 05:16:53;;;;;;;4.22;0.50;;;25.60;94.90;;;;;;5023547;28;20025;-61
2021/10/30 05:19:19;;;;;;;5.95;0.60;;;25.60;94.90;;;;;;5023423;28;20022;-58
2021/10/30 05:21:46;;;;;;;4.05;0.70;;;25.50;94.90;;;;;;5023349;28;20034;-60
2021/10/30 05:24:13;;;;;;;4.95;0.75;;;25.50;95.00;;;;;;5023264;28;20022;-60
2021/10/30 05:26:40;;;;;;;7.43;0.63;;;25.50;94.90;;;;;;5023582;28;20034;-52
2021/10/30 05:29:06;;;;;;;5.60;0.60;;;25.50;94.90;;;;;;5023239;28;20322;-51
2021/10/30 05:31:33;;;;;;;3.38;0.40;;;25.50;95.00;;;;;;5023659;28;20038;-52
2021/10/30 05:34:00;;;;;;;2.22;0.40;;;25.50;95.00;;;;;;5023199;28;20025;-54
2021/10/30 05:36:28;;;;;;;3.33;0.52;;;25.50;95.00;;;;;;5090367;28;20329;-52
2021/10/30 05:38:55;;;;;;;2.67;0.40;;;25.50;95.00;;;;;;5091308;28;20183;-55
2021/10/30 05:41:22;;;;;;;4.38;0.40;;;25.50;95.00;;;;;;5023641;28;20061;-53
2021/10/30 05:43:49;;;;;;;4.03;0.40;;;25.50;95.00;;;;;;5022907;28;20323;-57
2021/10/30 05:46:16;;;;;;;5.55;0.90;;;25.50;94.90;;;;;;5023111;28;20029;-60
2021/10/30 05:48:43;;;;;;;2.72;0.55;;;25.50;94.90;;;;;;5023008;28;20030;-57
2021/10/30 05:51:10;;;;;;;3.45;0.55;;;25.50;94.90;;;;;;5023039;28;20030;-59
2021/10/30 05:53:37;;;;;;;1.73;0.60;;;25.50;94.90;;;;;;5022785;28;20022;-60
2021/10/30 05:56:04;;;;;;;2.45;0.52;;;25.50;94.90;;;;;;5022937;28;20038;-60
2021/10/30 05:58:31;;;;;;;2.38;0.65;;;25.40;94.90;;;;;;5022650;28;20017;-60
2021/10/30 06:00:57;;;;;;;5.75;0.82;;;25.50;95.00;;;;;;5022916;28;20306;-56
2021/10/30 06:03:24;;;;;;;6.00;0.77;;;25.50;95.00;;;;;;5022704;28;20026;-54
2021/10/30 06:05:51;;;;;;;3.28;0.50;;;25.50;95.00;;;;;;5022724;28;20089;-56
2021/10/30 06:08:17;;;;;;;6.03;0.70;;;25.40;94.90;;;;;;5023007;28;20033;-56
2021/10/30 06:10:44;;;;;;;3.15;0.60;;;25.40;94.90;;;;;;5022645;28;20022;-61
2021/10/30 06:13:10;;;;;;;3.78;1.08;;;25.40;94.90;;;;;;5022421;28;20310;-60
2021/10/30 06:15:37;;;;;;;7.43;0.70;;;25.40;94.90;;;;;;5022495;28;20025;-61
2021/10/30 06:18:04;;;;;;;2.83;0.70;;;25.50;94.90;;;;;;5022442;28;20021;-61
2021/10/30 06:20:30;;;;;;;3.97;0.88;;;25.50;94.90;;;;;;5022271;28;20264;-58
2021/10/30 06:22:57;;;;;;;5.07;0.65;;;25.40;94.90;;;;;;5022522;28;20034;-57
2021/10/30 06:25:24;;;;;;;4.70;0.82;;;25.40;94.90;;;;;;5022011;28;20033;-54
2021/10/30 06:27:51;;;;;;;7.03;0.63;;;25.40;94.90;;;;;;5022302;28;20022;-56
2021/10/30 06:30:18;;;;;;;3.75;0.88;;;25.40;94.90;;;;;;5022366;28;20029;-55
2021/10/30 06:32:45;;;;;;;3.08;0.60;;;25.40;94.90;;;;;;5022698;28;20061;-53
2021/10/30 06:35:12;;;;;;;1.25;0.40;;;25.40;94.90;;;;;;5022059;28;20071;-55
2021/10/30 06:37:39;;;;;;;6.90;0.50;;;25.40;95.00;;;;;;5022631;28;20022;-56
2021/10/30 06:40:12;;;;;;;4.70;0.80;;;25.40;95.30;;;;;;5022356;28;20025;-55
2021/10/30 06:42:39;;;;;;;4.28;0.60;;;25.40;95.20;;;;;;5022090;28;20104;-54
2021/10/30 06:45:06;;;;;;;4.22;0.80;;;25.50;95.30;;;;;;5022005;28;20033;-57
2021/10/30 06:47:33;;;;;;;8.10;0.70;;;25.40;95.30;;;;;;5022429;28;20218;-54
2021/10/30 06:50:00;;;;;;;1.73;0.60;;;25.40;95.30;;;;;;5021691;28;20085;-55
2021/10/30 06:52:37;;;;;;;5.93;0.90;;;25.40;95.20;;;;;;5022493;28;20030;-54
2021/10/30 06:55:06;;;;;;;3.25;0.63;;;25.40;95.20;;;;;;5021981;28;20022;-56
2021/10/30 06:57:33;;;;;;;6.00;0.80;;;25.40;95.20;;;;;;5022227;28;20374;-54
2021/10/30 07:00:01;;;;;;;1.65;0.50;;;25.40;95.20;;;;;;5022015;28;20064;-55
2021/10/30 07:02:28;;;;;;;5.15;0.77;;;25.40;95.20;;;;;;5022376;28;20026;-53
2021/10/30 07:04:56;;;;;;;5.22;0.50;;;25.40;95.20;;;;;;5021708;28;20018;-56
2021/10/30 07:07:22;;;;;;;2.70;0.60;;;25.40;95.20;;;;;;5021766;28;20033;-56
2021/10/30 07:09:49;;;;;;;3.13;0.25;;;25.40;95.20;;;;;;5021774;28;20018;-55
2021/10/30 07:12:15;;;;;;;2.95;0.70;;;25.40;95.20;;;;;;5022240;28;20030;-55
2021/10/30 07:14:42;;;;;;;2.72;0.70;;;25.40;95.20;;;;;;5021594;28;20022;-55
2021/10/30 07:17:09;;;;;;;4.18;0.70;;;25.40;95.20;;;;;;5021803;28;20021;-55
2021/10/30 07:19:35;;;;;;;2.75;0.80;;;25.40;95.20;;;;;;5021400;28;20052;-54
2021/10/30 07:22:02;;;;;;;4.50;0.50;;;25.40;95.10;;;;;;5021878;28;20097;-53
2021/10/30 07:24:28;;;;;;;5.38;0.98;;;25.40;95.20;;;;;;5021502;28;20029;-52
2021/10/30 07:26:55;;;;;;;4.43;0.60;;;25.40;95.20;;;;;;5021670;28;20210;-52
2021/10/30 07:29:22;;;;;;;3.97;0.80;;;25.40;95.20;;;;;;5021449;28;20018;-55
2021/10/30 07:31:48;;;;;;;6.18;0.75;;;25.40;95.10;;;;;;5021713;28;20036;-54
2021/10/30 07:34:15;;;;;;;7.95;1.42;;;25.40;95.20;;;;;;5021065;28;20022;-55
2021/10/30 07:36:41;;;;;;;2.83;0.88;;;25.40;95.20;;;;;;5020934;28;20022;-54
2021/10/30 07:39:08;;;;;;;3.72;0.65;;;25.30;95.10;;;;;;5021420;28;20243;-60
2021/10/30 07:41:34;;;;;;;5.88;0.70;;;25.40;95.20;;;;;;5021441;28;20026;-60
2021/10/30 07:44:01;;;;;;;6.07;0.82;;;25.30;95.10;;;;;;5021224;28;20338;-62
2021/10/30 07:46:28;;;;;;;4.85;0.80;;;25.30;95.10;;;;;;5021557;28;20030;-62
2021/10/30 07:48:55;;;;;;;3.05;0.70;;;25.30;95.20;;;;;;5021058;28;20025;-62
2021/10/30 07:51:22;;;;;;;6.57;0.90;;;25.30;95.20;;;;;;5021397;28;20032;-55
2021/10/30 07:53:49;;;;;;;6.13;0.77;;;25.30;95.20;;;;;;5021175;28;20037;-57
2021/10/30 07:56:16;;;;;;;8.35;0.70;;;25.30;95.20;;;;;;5021141;28;20032;-61
2021/10/30 07:58:43;;;;;;;6.57;0.82;;;25.30;95.20;;;;;;5021103;28;20030;-60
2021/10/30 08:01:10;;;;;;;5.03;0.70;;;25.30;95.30;;;;;;5021144;28;20030;-58
2021/10/30 08:03:36;;;;;;;5.75;0.90;;;25.30;95.30;;;;;;5020980;28;20022;-60
2021/10/30 08:06:03;;;;;;;2.75;0.70;;;25.30;95.30;;;;;;5021048;28;20125;-60
2021/10/30 08:08:32;;;;;;;4.20;0.70;;;25.30;95.30;;;;;;5020886;28;20022;-55
2021/10/30 08:10:59;;;;;;;3.92;0.80;;;25.30;95.40;;;;;;5021058;28;20040;-57
2021/10/30 08:13:25;;;;;;;6.15;0.90;;;25.30;95.30;;;;;;5020793;28;20029;-54
2021/10/30 08:15:52;;;;;;;6.63;0.70;;;25.30;95.40;;;;;;5020881;28;20097;-55
2021/10/30 08:18:19;;;;;;;6.03;0.70;;;25.30;95.40;;;;;;5020833;28;20026;-56
2021/10/30 08:20:46;;;;;;;4.05;0.73;;;25.30;95.40;;;;;;5020729;28;20030;-55
2021/10/30 08:23:13;;;;;;;4.90;0.63;;;25.30;95.50;;;;;;5020797;28;20240;-52
2021/10/30 08:25:39;;;;;;;7.68;1.05;;;25.30;95.50;;;;;;5020852;28;20022;-52
2021/10/30 08:28:06;;;;;;;5.97;0.63;;;25.30;95.40;;;;;;5020599;28;20033;-57
2021/10/30 08:30:33;;;;;;;6.47;0.93;;;25.30;95.40;;;;;;5020669;28;20306;-56
2021/10/30 08:33:00;;;;;;;5.03;0.77;;;25.30;95.50;;;;;;5020632;28;20026;-56
2021/10/30 08:35:26;;;;;;;3.85;0.57;;;25.30;95.50;;;;;;5020400;28;20022;-55
2021/10/30 08:37:53;;;;;;;9.05;1.08;;;25.20;95.50;;;;;;5020584;28;20018;-54
2021/10/30 08:40:20;;;;;;;5.82;1.20;;;25.20;95.50;;;;;;5020612;28;20183;-55
2021/10/30 08:42:48;;;;;;;4.72;0.65;;;25.20;95.60;;;;;;5020521;28;20170;-55
2021/10/30 08:45:16;;;;;;;5.55;0.70;;;25.20;95.60;;;;;;5020886;28;20029;-55
2021/10/30 08:47:45;;;;;;;8.48;1.05;;;25.20;95.60;;;;;;5021510;28;20097;-55
2021/10/30 08:50:14;;;;;;;4.40;0.85;;;25.20;95.60;;;;;;5023644;28;20049;-56
2021/10/30 08:52:41;;;;;;;8.02;1.13;;;25.20;95.60;;;;;;5023726;28;20035;-55
2021/10/30 08:55:09;;;;;;;6.28;1.45;;;25.20;95.70;;;;;;5023737;28;20017;-55
2021/10/30 08:57:37;;;;;;;4.72;1.60;;;25.20;95.70;;;;;;5024225;28;20026;-55
2021/10/30 09:00:19;;;;;;;12.13;1.63;;;25.20;95.70;;;;;;5023849;28;20018;-55
2021/10/30 09:02:53;;;;;;;3.05;1.40;;;25.20;95.70;;;;;;5023596;28;20352;-55
2021/10/30 09:05:23;;;;;;;9.13;1.90;;;25.30;95.70;;;;;;5023523;28;20302;-55
2021/10/30 09:07:57;;;;;;;7.40;2.33;;;25.20;95.70;;;;;;5023668;28;20030;-61
2021/10/30 09:10:25;;;;;;;6.20;2.83;;;25.20;95.70;;;;;;5023483;28;20214;-60
2021/10/30 09:12:57;;;;;;;9.68;3.58;;;25.20;95.80;;;;;;5023676;28;20215;-57
2021/10/30 09:15:51;;;;;;;10.45;2.92;;;25.20;95.70;;;;;;5023217;28;20091;-60
2021/10/30 09:18:24;;;;;;;8.23;2.78;;;25.20;95.80;;;;;;5024157;28;20021;-60
2021/10/30 09:20:52;;;;;;;8.60;2.38;;;25.20;95.80;;;;;;5023697;28;20367;-60
2021/10/30 09:23:30;;;;;;;7.13;1.90;;;25.20;95.80;;;;;;5026694;28;20030;-54
2021/10/30 09:26:01;;;;;;;8.07;1.60;;;25.20;95.70;;;;;;5036044;28;20037;-54
2021/10/30 09:28:30;;;;;;;5.40;1.50;;;25.20;95.70;;;;;;5043180;28;20028;-55
2021/10/30 09:31:00;;;;;;;6.68;2.42;;;25.20;95.70;;;;;;5043187;28;20089;-57
2021/10/30 09:33:29;;;;;;;9.50;3.05;;;25.20;95.70;;;;;;5042795;28;20034;-60
2021/10/30 09:35:56;;;;;;;11.65;2.90;;;25.20;95.60;;;;;;5043024;28;20025;-56
2021/10/30 09:38:38;;;;;;;7.65;2.72;;;25.20;95.60;;;;;;5042887;28;20013;-62
2021/10/30 09:41:24;;;;;;;8.55;2.22;;;25.20;95.60;;;;;;5042922;28;20026;-55
2021/10/30 09:43:55;;;;;;;8.60;1.90;;;25.20;95.70;;;;;;5042606;28;20050;-52
2021/10/30 09:46:23;;;;;;;11.50;2.20;;;25.20;95.70;;;;;;5042883;28;20186;-57
2021/10/30 09:48:50;;;;;;;11.13;1.90;;;25.20;95.70;;;;;;5042769;28;20021;-54
2021/10/30 09:51:33;;;;;;;5.15;1.38;;;25.10;95.70;;;;;;5042862;28;20057;-55
2021/10/30 09:54:07;;;;;;;7.78;1.35;;;25.20;95.70;;;;;;5042574;28;20036;-55
2021/10/30 09:56:39;;;;;;;4.85;1.70;;;25.20;95.70;;;;;;5043005;28;20356;-56
2021/10/30 09:59:08;;;;;;;;;;;25.20;95.80;;;;;;5042885;28;20021;-54
2021/10/30 10:01:37;;;;;;;8.90;3.20;;;25.10;95.80;;;;;;5042479;28;20256;-55
2021/10/30 10:04:05;;;;;;;8.57;3.63;;;25.10;95.80;;;;;;5042486;28;20035;-56
2021/10/30 10:06:34;;;;;;;5.72;3.10;;;25.10;95.80;;;;;;5042631;28;20030;-56
2021/10/30 10:09:03;;;;;;;10.95;3.80;;;25.10;95.90;;;;;;5041933;28;20352;-61
2021/10/30 10:11:30;;;;;;;7.60;3.17;;;25.10;95.90;;;;;;5042620;28;20064;-56
2021/10/30 10:13:57;;;;;;;8.30;3.30;;;25.10;95.90;;;;;;5042473;28;20025;-54
2021/10/30 10:16:26;;;;;;;9.40;2.72;;;25.10;95.90;;;;;;5042456;28;20340;-55
2021/10/30 10:18:58;;;;;;;8.27;2.38;;;25.10;95.90;;;;;;5042389;28;20112;-55
2021/10/30 10:21:37;;;;;;;10.23;2.17;;;25.20;96.00;;;;;;5042152;28;20034;-55
2021/10/30 10:24:30;;;;;;;5.35;2.15;;;25.10;96.00;;;;;;5042271;28;20096;-56
2021/10/30 10:26:58;;;;;;;8.15;2.70;;;25.10;96.00;;;;;;5023062;28;20042;-55
2021/10/30 10:29:37;;;;;;;5.22;2.30;;;25.10;96.00;;;;;;5034349;28;20021;-55
2021/10/30 10:32:08;;;;;;;7.57;1.98;;;25.10;96.00;;;;;;5042324;28;20394;-54
2021/10/30 10:34:36;;;;;;;9.38;2.40;;;25.20;96.10;;;;;;5037266;28;20018;-56
2021/10/30 10:37:12;;;;;;;9.20;2.30;;;25.20;96.10;;;;;;5034066;28;20029;-56
2021/10/30 10:39:40;;;;;;;7.55;2.17;;;25.20;96.10;;;;;;5042781;28;20041;-53
2021/10/30 10:42:12;;;;;;;10.25;2.38;;;25.20;96.10;;;;;;5038901;28;20032;-58
2021/10/30 10:44:41;;;;;;;6.57;1.95;;;25.20;96.10;;;;;;5041871;28;20325;-56
2021/10/30 10:47:29;;;;;;;7.43;1.90;;;25.20;96.20;;;;;;5042304;28;20056;-55
2021/10/30 10:50:29;;;;;;;8.40;1.90;;;25.20;96.20;;;;;;5041763;28;20233;-54
2021/10/30 10:53:01;;;;;;;10.00;2.20;;;25.20;96.20;;;;;;5041811;28;20038;-48
2021/10/30 10:55:31;;;;;;;9.95;1.65;;;25.20;96.20;;;;;;5041404;28;20013;-55
2021/10/30 10:58:05;;;;;;;6.35;1.52;;;25.20;96.30;;;;;;5041716;28;20028;-54
2021/10/30 11:00:33;;;;;;;8.98;1.73;;;25.20;96.30;;;;;;5041391;28;20014;-56
2021/10/30 11:03:01;;;;;;;5.13;1.60;;;25.10;96.20;;;;;;5040999;28;20258;-55
2021/10/30 11:05:35;;;;;;;12.27;2.00;;;25.20;96.30;;;;;;5040807;28;20041;-59
2021/10/30 11:08:11;;;;;;;8.68;1.58;;;25.20;96.30;;;;;;5109952;28;20036;-59
2021/10/30 11:10:42;;;;;;;5.10;1.60;;;25.20;96.30;;;;;;5039843;28;20029;-56
2021/10/30 11:13:11;;;;;;;5.88;1.67;;;25.20;96.30;;;;;;5038959;28;20025;-61
2021/10/30 11:15:54;;;;;;;7.75;1.50;;;25.20;96.30;;;;;;5039666;28;20027;-56
2021/10/30 11:18:35;;;;;;;8.52;1.40;;;25.20;96.40;;;;;;5039748;28;20024;-57
2021/10/30 11:21:23;;;;;;;6.35;2.20;;;25.20;96.40;;;;;;5039624;28;20222;-57
2021/10/30 11:23:52;;;;;;;5.10;2.65;;;25.20;96.40;;;;;;5039620;28;20369;-56
2021/10/30 11:26:19;;;;;;;4.40;2.50;;;25.20;96.40;;;;;;5040321;28;20029;-56
2021/10/30 11:28:46;;;;;;;6.10;2.63;;;25.20;96.40;;;;;;5026121;28;20339;-56
2021/10/30 11:31:24;;;;;;;13.40;4.05;;;25.20;96.40;;;;;;5024832;28;20104;-53
2021/10/30 11:34:01;;;;;;;10.43;4.28;;;25.20;96.40;;;;;;5030972;28;20033;-55
2021/10/30 11:36:29;;;;;;;7.88;4.38;;;25.20;96.50;;;;;;5041238;28;20066;-59
2021/10/30 11:38:59;;;;;;;10.00;4.03;;;25.30;96.50;;;;;;5041111;28;20017;-55
2021/10/30 11:41:31;;;;;;;10.00;3.28;;;25.30;96.50;;;;;;5040852;28;20268;-59
2021/10/30 11:44:02;;;;;;;11.07;4.10;;;25.30;96.50;;;;;;5039518;28;20106;-53
2021/10/30 11:46:28;;;;;;;7.82;4.63;;;25.30;96.50;;;;;;5041287;28;20040;-55
2021/10/30 11:48:57;;;;;;;8.38;3.80;;;25.30;96.50;;;;;;5040044;28;20025;-52
2021/10/30 11:51:31;;;;;;;7.35;3.20;;;25.30;96.50;;;;;;5041206;28;20034;-54
2021/10/30 11:53:59;;;;;;;8.25;3.05;;;25.30;96.50;;;;;;5040711;28;20113;-59
2021/10/30 11:56:29;;;;;;;8.80;3.50;;;25.30;96.50;;;;;;5041215;28;20052;-59
2021/10/30 11:59:04;;;;;;;5.35;2.80;;;25.30;96.50;;;;;;5041211;28;20014;-57
2021/10/30 12:01:35;;;;;;;6.75;2.88;;;25.30;96.50;;;;;;5041132;28;20054;-58
2021/10/30 12:04:13;;;;;;;9.57;3.03;;;25.30;96.40;;;;;;5040896;28;20030;-54
2021/10/30 12:06:43;;;;;;;8.38;3.50;;;25.40;96.50;;;;;;5040800;28;20021;-53
2021/10/30 12:09:33;;;;;;;8.52;3.40;;;25.40;96.40;;;;;;5040658;28;20070;-52
2021/10/30 12:12:02;;;;;;;7.88;4.38;;;25.40;96.50;;;;;;5041049;28;20031;-54
2021/10/30 12:14:34;;;;;;;7.90;3.60;;;25.40;96.40;;;;;;5040986;28;20029;-56
2021/10/30 12:17:05;;;;;;;9.90;3.30;;;25.40;96.40;;;;;;5041030;28;20048;-52
2021/10/30 12:19:34;;;;;;;9.63;3.10;;;25.40;96.40;;;;;;5040564;28;20075;-57
2021/10/30 12:22:06;;;;;;;6.20;2.92;;;25.50;96.50;;;;;;5040960;28;20021;-55
2021/10/30 12:24:33;;;;;;;6.82;3.05;;;25.40;96.40;;;;;;5044091;28;20022;-56
2021/10/30 12:27:03;;;;;;;7.65;3.10;;;25.50;96.50;;;;;;5044534;28;20189;-56
2021/10/30 12:29:41;;;;;;;8.70;3.05;;;25.50;96.40;;;;;;5044161;28;20021;-55
2021/10/30 12:32:19;;;;;;;9.80;3.40;;;25.50;96.40;;;;;;5044474;28;20033;-55
2021/10/30 12:35:00;;;;;;;6.95;2.88;;;25.50;96.40;;;;;;5044142;28;20032;-53
2021/10/30 12:37:30;;;;;;;5.78;3.20;;;25.50;96.30;;;;;;5044640;28;20065;-55
2021/10/30 12:40:06;;;;;;;6.18;2.78;;;25.60;96.20;;;;;;5044184;28;20014;-54
2021/10/30 12:42:34;;;;;;;5.72;2.40;;;25.60;96.20;;;;;;5041639;28;20045;-55
2021/10/30 12:45:00;;;;;;;5.45;2.85;;;25.70;96.20;;;;;;5037697;28;20036;-55
2021/10/30 12:47:30;;;;;;;4.60;2.42;;;25.70;96.00;;;;;;5106056;28;20038;-56
2021/10/30 12:49:59;;;;;;;4.72;2.28;;;25.70;96.00;;;;;;5044066;28;20021;-55
2021/10/30 12:52:41;;;;;;;6.68;2.15;;;25.70;95.90;;;;;;5043812;28;20025;-56